Phoenicia, New York
Current Conditions -  °F | °C
As of 11:35 AM on Thursday 23 Oct 2014 (Local Time) from KMSV Reporting Station
Overcast Overcast  
Wind Chill: 41°   Ceiling: 1600
Heat Index: 46°   Visibility: 10mi
Dew Point: 45°   Wind: 12mph
Humidity: 93%   Direction: 350°N
Pressure: 29.8"   Gusts: 17mph
Location:  42.08°N, 74.31°W
Report Text: KMSV 231535Z AUTO 35010G15KT 10SM OVC016 08/07 A2980 RMK AO1
Loading
Personal Weather Stations






























Interactive Weather Map
Tropical Storm Tracking
New forecast layout! Learn more

10-Day Weather Forecast

Advertisements
Track Severe Weather on mobile